Time;durP1;ratioP1;P1;durP2;ratioP2;P2;SDS_P1;SDS_P2;PMS_P1;PMS_P2;Temp;Humidity;BMP_temperature;BMP_pressure;BME280_temperature;BME280_humidity;BME280_pressure;Samples;Min_cycle;Max_cycle;Signal;HPM_P1;HPM_P2
2024/02/17 21:27:54;;;;;;;;;5.00;4.00;;;;;18.64;57.89;103269.13;1993091;27;2739321;-75
2024/02/17 21:29:05;;;;;;;;;5.67;5.67;;;;;18.86;57.65;103268.56;2004930;27;2739892;-68
2024/02/17 21:30:16;;;;;;;;;5.00;5.00;;;;;19.07;57.28;103270.66;2046421;27;2752461;-69
2024/02/17 21:31:27;;;;;;;;;7.00;5.00;;;;;19.25;57.10;103269.28;2028898;27;3466961;-71
2024/02/17 21:32:39;;;;;;;;;3.00;3.00;;;;;19.42;56.35;103270.56;2055895;27;2736752;-69
2024/02/17 21:33:49;;;;;;;;;6.00;5.00;;;;;19.58;55.75;103265.63;2032974;27;2754604;-68
2024/02/17 21:35:00;;;;;;;;;6.00;4.00;;;;;19.74;55.56;103265.13;2048043;27;3459715;-71
2024/02/17 21:36:14;;;;;;;;;5.33;5.33;;;;;19.88;55.12;103262.00;2050811;27;2742985;-71
2024/02/17 21:37:24;;;;;;;;;6.00;4.00;;;;;20.02;54.87;103265.13;2039073;27;2752443;-71
2024/02/17 21:38:35;;;;;;;;;5.00;4.00;;;;;20.14;54.75;103263.00;2047972;27;3461698;-69
2024/02/17 21:39:47;;;;;;;;;5.33;5.00;;;;;20.25;54.50;103262.59;2050266;27;2746165;-68
2024/02/17 21:41:01;;;;;;;;;4.67;3.67;;;;;20.37;54.13;103261.34;2062725;27;2741974;-70
2024/02/17 21:42:11;;;;;;;;;10.67;8.00;;;;;20.46;53.85;103269.03;2013048;27;3485667;-70
2024/02/17 21:43:22;;;;;;;;;7.00;6.00;;;;;20.56;53.48;103266.91;2034317;27;3463798;-69
2024/02/17 21:44:33;;;;;;;;;4.00;4.00;;;;;20.64;53.69;103261.25;2046515;27;2754543;-71
2024/02/17 21:45:45;;;;;;;;;6.00;5.00;;;;;20.73;52.99;103265.41;2056517;27;2746144;-69
2024/02/17 21:46:55;;;;;;;;;5.00;5.00;;;;;20.82;52.91;103266.88;2009701;27;2749809;-68
2024/02/17 21:48:06;;;;;;;;;7.00;4.33;;;;;20.91;52.75;103269.19;2046340;27;3472137;-70
2024/02/17 21:49:17;;;;;;;;;6.33;4.00;;;;;20.98;52.72;103269.84;2040203;27;2748200;-70
2024/02/17 21:50:28;;;;;;;;;5.67;4.67;;;;;21.05;52.23;103262.50;2070041;27;1819056;-71
2024/02/17 21:51:39;;;;;;;;;6.67;5.00;;;;;21.10;52.31;103252.50;2023413;27;2752926;-70
2024/02/17 21:52:50;;;;;;;;;4.33;4.33;;;;;21.19;52.13;103255.75;2043924;27;2748277;-70
2024/02/17 21:54:01;;;;;;;;;3.33;3.33;;;;;21.23;51.45;103254.72;2042637;27;2754540;-70
2024/02/17 21:55:12;;;;;;;;;5.00;5.00;;;;;21.30;51.96;103256.22;2032665;27;2738849;-71
2024/02/17 21:56:23;;;;;;;;;7.33;5.00;;;;;21.34;51.67;103255.16;2048349;27;3458597;-70
2024/02/17 21:57:34;;;;;;;;;5.33;5.33;;;;;21.39;51.33;103254.97;2044675;27;2741962;-70
2024/02/17 21:58:44;;;;;;;;;7.00;5.00;;;;;21.44;51.58;103258.34;2033387;27;2743058;-70
2024/02/17 21:59:55;;;;;;;;;10.00;6.33;;;;;21.48;51.51;103257.28;2038917;28;3468994;-69
2024/02/17 22:01:06;;;;;;;;;4.33;4.33;;;;;21.52;50.84;103255.38;2044954;27;3457540;-70
2024/02/17 22:02:17;;;;;;;;;7.33;5.00;;;;;21.57;50.83;103255.19;2046025;27;2745065;-70
2024/02/17 22:03:28;;;;;;;;;4.00;4.00;;;;;21.59;50.74;103256.84;2054123;27;2752474;-69
2024/02/17 22:04:39;;;;;;;;;6.00;5.00;;;;;21.64;50.88;103253.13;2063597;27;1821170;-71
2024/02/17 22:05:49;;;;;;;;;5.33;5.33;;;;;21.66;50.80;103249.44;2010417;27;2748224;-71
2024/02/17 22:07:00;;;;;;;;;6.67;6.00;;;;;21.70;50.59;103250.22;2057947;27;2746485;-71
2024/02/17 22:08:11;;;;;;;;;4.67;4.00;;;;;21.74;50.47;103245.59;2007867;27;3468367;-70
2024/02/17 22:09:22;;;;;;;;;5.00;5.00;;;;;21.76;50.15;103249.94;2044764;27;2750359;-70
2024/02/17 22:10:33;;;;;;;;;5.33;5.33;;;;;21.78;49.95;103241.88;2045288;27;2754565;-70
2024/02/17 22:11:44;;;;;;;;;6.00;6.00;;;;;21.83;49.94;103249.72;2042890;27;2746616;-70
2024/02/17 22:12:54;;;;;;;;;8.00;5.00;;;;;21.84;50.10;103232.69;2043378;27;2738854;-71
2024/02/17 22:14:08;;;;;;;;;6.00;6.00;;;;;21.88;50.02;103239.69;2047056;27;2750328;-71
2024/02/17 22:15:21;;;;;;;;;7.67;6.50;;;;;21.90;49.45;103233.34;2057960;27;2730478;-71
2024/02/17 22:16:33;;;;;;;;;4.67;4.67;;;;;21.92;49.36;103236.84;2009129;27;2745517;-72
2024/02/17 22:17:44;;;;;;;;;6.00;6.00;;;;;21.94;49.59;103236.75;2031938;27;2745169;-71
2024/02/17 22:18:54;;;;;;;;;3.33;3.33;;;;;21.96;49.46;103234.88;2035606;27;2752427;-71
2024/02/17 22:20:06;;;;;;;;;6.67;5.00;;;;;22.00;49.08;103241.00;2045345;27;3465863;-71
2024/02/17 22:21:24;;;;;;;;;6.00;4.33;;;;;22.01;49.06;103248.06;2030697;27;2749287;-71
2024/02/17 22:22:34;;;;;;;;;7.00;5.67;;;;;22.02;49.21;103242.69;2030308;27;3460665;-71
2024/02/17 22:23:45;;;;;;;;;5.00;5.00;;;;;22.04;48.87;103237.25;2046235;27;2752420;-69
2024/02/17 22:24:56;;;;;;;;;7.33;7.00;;;;;22.06;48.87;103239.84;2045493;27;2743061;-71
2024/02/17 22:26:07;;;;;;;;;6.00;6.00;;;;;22.08;48.97;103233.50;2043781;27;2748294;-72
2024/02/17 22:27:18;;;;;;;;;5.00;5.00;;;;;22.10;49.25;103234.28;2040240;27;2739850;-71
2024/02/17 22:28:29;;;;;;;;;5.00;5.00;;;;;22.11;49.08;103238.72;2031103;27;3459648;-70
2024/02/17 22:29:39;;;;;;;;;5.33;5.33;;;;;22.13;48.67;103244.00;2040092;27;2749241;-70
2024/02/17 22:30:50;;;;;;;;;6.33;5.00;;;;;22.14;48.65;103235.03;2038103;27;2748313;-70
2024/02/17 22:32:01;;;;;;;;;8.33;6.00;;;;;22.17;48.43;103242.09;2043335;27;2739917;-70
2024/02/17 22:33:12;;;;;;;;;8.00;5.00;;;;;22.19;48.61;103243.75;2043822;27;2741982;-71
2024/02/17 22:34:23;;;;;;;;;6.00;5.00;;;;;22.20;48.24;103241.97;2041381;27;2742029;-70
2024/02/17 22:35:34;;;;;;;;;5.00;5.00;;;;;22.21;48.87;103241.88;2044751;27;3459975;-70
2024/02/17 22:36:45;;;;;;;;;7.67;6.67;;;;;22.24;48.93;103240.88;2049327;27;3465886;-69
2024/02/17 22:37:59;;;;;;;;;3.50;3.25;;;;;22.24;48.68;103243.56;2054311;27;1814846;-70
2024/02/17 22:39:09;;;;;;;;;5.00;4.00;;;;;22.25;48.46;103240.78;2021235;28;2752394;-68
2024/02/17 22:40:22;;;;;;;;;5.33;5.00;;;;;22.26;48.49;103237.19;2041258;27;2750439;-70
2024/02/17 22:41:32;;;;;;;;;6.67;6.67;;;;;22.29;48.48;103240.66;2018041;28;2744031;-70
2024/02/17 22:42:45;;;;;;;;;4.00;4.00;;;;;22.29;48.00;103236.19;2034668;28;2741001;-70
2024/02/17 22:43:58;;;;;;;;;7.67;5.00;;;;;22.31;48.52;103233.44;2025807;28;3467942;-71
2024/02/17 22:45:09;;;;;;;;;7.33;6.00;;;;;22.31;48.00;103225.41;2027172;27;2747241;-71
2024/02/17 22:46:20;;;;;;;;;7.00;7.00;;;;;22.32;47.82;103229.84;2051289;28;2734664;-70
2024/02/17 22:47:30;;;;;;;;;6.33;6.00;;;;;22.31;47.77;103228.06;2003141;27;2746102;-71
2024/02/17 22:48:41;;;;;;;;;8.00;6.00;;;;;22.32;47.67;103230.69;2042852;27;3462752;-70
2024/02/17 22:49:52;;;;;;;;;3.00;3.00;;;;;22.32;48.13;103228.00;2038314;28;2754932;-70
2024/02/17 22:51:03;;;;;;;;;7.00;5.00;;;;;22.33;48.14;103226.19;2038963;27;2740927;-71
2024/02/17 22:52:14;;;;;;;;;3.33;3.33;;;;;22.34;47.85;103227.94;2036729;27;3450375;-70
2024/02/17 22:53:25;;;;;;;;;6.00;5.00;;;;;22.34;47.89;103228.81;2025918;28;3458602;-70
2024/02/17 22:54:36;;;;;;;;;8.00;4.00;;;;;22.35;47.95;103222.50;2042027;27;3465875;-71
2024/02/17 22:55:47;;;;;;;;;6.00;5.00;;;;;22.37;47.49;103219.78;2036128;28;3465881;-69
2024/02/17 22:56:58;;;;;;;;;5.00;5.00;;;;;22.38;47.41;103218.84;2039516;27;2746197;-70
2024/02/17 22:58:09;;;;;;;;;5.00;5.00;;;;;22.38;47.51;103218.84;2038993;28;2744082;-70
2024/02/17 22:59:20;;;;;;;;;4.00;4.00;;;;;22.39;47.37;103217.91;2034685;27;2741967;-70
2024/02/17 23:00:30;;;;;;;;;5.67;5.67;;;;;22.40;47.31;103221.47;2040471;27;3454403;-70
2024/02/17 23:01:42;;;;;;;;;6.00;6.00;;;;;22.40;47.38;103219.63;2056149;27;1811717;-70
2024/02/17 23:02:53;;;;;;;;;4.00;4.00;;;;;22.42;47.18;103227.63;2012218;28;3470051;-72
2024/02/17 23:04:06;;;;;;;;;3.00;3.00;;;;;22.41;47.88;103221.38;2025961;27;3470075;-70
2024/02/17 23:05:16;;;;;;;;;5.67;5.67;;;;;22.41;47.19;103221.38;2020081;27;2746842;-70
